createdAt,value
2022-11-26T00:01:22.415Z,3.52
2022-11-26T00:03:49.820Z,3.51
2022-11-26T00:06:30.013Z,3.52
2022-11-26T00:08:57.022Z,3.53
2022-11-26T00:11:24.058Z,3.52
2022-11-26T00:13:50.871Z,3.55
2022-11-26T00:16:17.899Z,3.52
2022-11-26T00:18:44.695Z,3.51
2022-11-26T00:21:18.138Z,3.48
2022-11-26T00:23:45.286Z,3.50
2022-11-26T00:26:18.855Z,3.53
2022-11-26T00:28:51.158Z,3.52
2022-11-26T00:31:18.577Z,3.51
2022-11-26T00:33:45.520Z,3.47
2022-11-26T00:36:28.511Z,3.49
2022-11-26T00:39:00.614Z,3.48
2022-11-26T00:41:32.001Z,3.46
2022-11-26T00:43:58.958Z,3.46
2022-11-26T00:46:25.839Z,3.46
2022-11-26T00:48:52.686Z,3.45
2022-11-26T00:51:26.203Z,3.43
2022-11-26T00:53:55.846Z,3.42
2022-11-26T00:56:23.625Z,3.39
2022-11-26T00:58:51.046Z,3.34
2022-11-26T01:01:21.417Z,3.30
2022-11-26T01:03:48.345Z,3.30
2022-11-26T01:06:20.423Z,3.33
2022-11-26T01:08:48.157Z,3.34
2022-11-26T01:11:18.295Z,3.36
2022-11-26T01:13:46.273Z,3.35
2022-11-26T01:16:19.141Z,3.36
2022-11-26T01:18:46.952Z,3.34
2022-11-26T01:21:14.192Z,3.32
2022-11-26T01:23:41.052Z,3.31
2022-11-26T01:26:15.901Z,3.28
2022-11-26T01:28:42.866Z,3.28
2022-11-26T01:31:21.438Z,3.25
2022-11-26T01:33:49.122Z,3.24
2022-11-26T01:36:48.320Z,3.18
2022-11-26T01:39:18.166Z,3.16
2022-11-26T01:42:07.496Z,3.10
2022-11-26T01:44:37.403Z,3.07
2022-11-26T01:47:26.316Z,3.07
2022-11-26T01:50:30.914Z,3.09
2022-11-26T01:53:13.425Z,3.11
2022-11-26T01:55:45.296Z,3.09
2022-11-26T01:58:16.303Z,3.11
2022-11-26T02:00:43.531Z,3.09
2022-11-26T02:03:11.196Z,3.10
2022-11-26T02:05:52.343Z,3.13
2022-11-26T02:08:19.388Z,3.14
2022-11-26T02:10:46.436Z,3.12
2022-11-26T02:13:13.388Z,3.13
2022-11-26T02:16:06.337Z,3.13
2022-11-26T02:18:42.334Z,3.16
2022-11-26T02:21:15.571Z,3.14
2022-11-26T02:23:51.587Z,3.13
2022-11-26T02:26:37.868Z,3.13
2022-11-26T02:29:45.932Z,3.12
2022-11-26T02:32:21.798Z,3.10
2022-11-26T02:34:55.511Z,3.11
2022-11-26T02:37:28.085Z,3.10
2022-11-26T02:39:57.877Z,3.05
2022-11-26T02:42:33.913Z,3.05
2022-11-26T02:45:09.095Z,3.03
2022-11-26T02:47:38.658Z,3.05
2022-11-26T02:50:12.412Z,3.02
2022-11-26T02:52:42.545Z,3.01
2022-11-26T02:55:13.469Z,3.02
2022-11-26T02:57:48.797Z,3.01
2022-11-26T03:00:17.260Z,2.98
2022-11-26T03:02:48.807Z,2.99
2022-11-26T03:05:18.522Z,2.96
2022-11-26T03:07:49.612Z,2.99
2022-11-26T03:10:16.764Z,2.95
2022-11-26T03:12:43.633Z,2.96
2022-11-26T03:15:11.398Z,2.96
2022-11-26T03:17:38.226Z,2.91
2022-11-26T03:20:05.865Z,2.93
2022-11-26T03:22:32.701Z,2.92
2022-11-26T03:24:59.486Z,2.92
2022-11-26T03:27:26.380Z,2.93
2022-11-26T03:29:53.343Z,2.89
2022-11-26T03:32:20.167Z,2.94
2022-11-26T03:34:47.097Z,2.93
2022-11-26T03:37:14.344Z,2.96
2022-11-26T03:39:41.261Z,2.98
2022-11-26T03:42:08.154Z,2.97
2022-11-26T03:44:35.204Z,2.95
2022-11-26T03:47:02.282Z,2.94
2022-11-26T03:49:29.084Z,2.94
2022-11-26T03:51:56.072Z,2.90
2022-11-26T03:54:23.206Z,2.93
2022-11-26T03:56:50.053Z,2.91
2022-11-26T03:59:16.897Z,2.94
2022-11-26T04:01:44.885Z,2.96
2022-11-26T04:04:11.739Z,2.97
2022-11-26T04:06:38.981Z,3.01
2022-11-26T04:09:05.941Z,3.03
2022-11-26T04:11:32.853Z,3.04
2022-11-26T04:13:59.810Z,3.02
2022-11-26T04:16:26.734Z,3.04
2022-11-26T04:18:53.703Z,3.03
2022-11-26T04:21:20.457Z,3.04
2022-11-26T04:23:47.668Z,3.05
2022-11-26T04:26:14.823Z,3.03
2022-11-26T04:28:41.772Z,3.05
2022-11-26T04:31:08.674Z,3.04
2022-11-26T04:33:35.541Z,3.07
2022-11-26T04:36:02.561Z,3.06
2022-11-26T04:38:29.445Z,3.09
2022-11-26T04:40:56.194Z,3.09
2022-11-26T04:43:23.072Z,3.07
2022-11-26T04:45:49.907Z,3.02
2022-11-26T04:48:16.857Z,3.03
2022-11-26T04:50:43.662Z,3.03
2022-11-26T04:53:10.919Z,2.99
2022-11-26T04:55:37.958Z,3.02
2022-11-26T04:58:04.756Z,2.99
2022-11-26T05:00:31.792Z,2.96
2022-11-26T05:02:58.687Z,2.92
2022-11-26T05:05:27.944Z,2.87
2022-11-26T05:07:54.898Z,2.82
2022-11-26T05:10:21.894Z,2.80
2022-11-26T05:12:48.662Z,2.78
2022-11-26T05:15:15.689Z,2.76
2022-11-26T05:17:42.539Z,2.72
2022-11-26T05:20:09.856Z,2.72
2022-11-26T05:22:36.855Z,2.69
2022-11-26T05:25:04.172Z,2.69
2022-11-26T05:27:31.134Z,2.66
2022-11-26T05:29:57.905Z,2.63
2022-11-26T05:32:24.706Z,2.63
2022-11-26T05:34:54.505Z,2.68
2022-11-26T05:37:25.707Z,2.67
2022-11-26T05:39:52.537Z,2.65
2022-11-26T05:42:19.386Z,2.64
2022-11-26T05:44:46.209Z,2.58
2022-11-26T05:47:13.037Z,2.52
2022-11-26T05:49:39.869Z,2.49
2022-11-26T05:52:06.702Z,2.46
2022-11-26T05:54:33.590Z,2.44
2022-11-26T05:57:00.651Z,2.44
2022-11-26T05:59:28.041Z,2.45
2022-11-26T06:01:54.977Z,2.43
2022-11-26T06:04:21.837Z,2.40
2022-11-26T06:06:48.802Z,2.40
2022-11-26T06:09:15.683Z,2.44
2022-11-26T06:11:42.489Z,2.45
2022-11-26T06:14:10.671Z,2.42
2022-11-26T06:16:37.808Z,2.45
2022-11-26T06:19:04.801Z,2.46
2022-11-26T06:21:31.640Z,2.47
2022-11-26T06:23:59.742Z,2.48
2022-11-26T06:26:27.278Z,2.49
2022-11-26T06:28:54.517Z,2.45
2022-11-26T06:31:21.577Z,2.48
2022-11-26T06:33:48.553Z,2.46
2022-11-26T06:36:15.360Z,2.45
2022-11-26T06:38:42.180Z,2.46
2022-11-26T06:41:09.421Z,2.44
2022-11-26T06:43:36.400Z,2.45
2022-11-26T06:46:05.478Z,2.45
2022-11-26T06:48:33.256Z,2.46
2022-11-26T06:51:20.713Z,2.46
2022-11-26T06:53:51.012Z,2.45
2022-11-26T06:56:19.292Z,2.43
2022-11-26T06:58:50.942Z,2.40
2022-11-26T07:01:20.918Z,2.45
2022-11-26T07:03:47.897Z,2.44
2022-11-26T07:06:24.522Z,2.45
2022-11-26T07:08:53.257Z,2.47
2022-11-26T07:11:21.102Z,2.48
2022-11-26T07:13:48.016Z,2.49
2022-11-26T07:16:15.138Z,2.49
2022-11-26T07:18:42.683Z,2.48
2022-11-26T07:21:13.217Z,2.50
2022-11-26T07:23:40.885Z,2.52
2022-11-26T07:26:09.828Z,2.49
2022-11-26T07:28:36.917Z,2.51
2022-11-26T07:31:14.683Z,2.56
2022-11-26T07:33:44.443Z,2.54
2022-11-26T07:36:20.972Z,2.58
2022-11-26T07:38:48.192Z,2.62
2022-11-26T07:41:19.330Z,2.66
2022-11-26T07:43:47.062Z,2.67
2022-11-26T07:46:17.307Z,2.72
2022-11-26T07:48:44.576Z,2.76
2022-11-26T07:51:20.518Z,2.79
2022-11-26T07:53:48.331Z,2.86
2022-11-26T07:56:15.700Z,2.91
2022-11-26T07:58:43.119Z,2.95
2022-11-26T08:01:18.529Z,2.96
2022-11-26T08:03:47.460Z,3.06
2022-11-26T08:06:20.669Z,3.10
2022-11-26T08:08:47.905Z,3.16
2022-11-26T08:11:23.338Z,3.19
2022-11-26T08:13:54.171Z,3.30
2022-11-26T08:16:21.121Z,3.33
2022-11-26T08:18:48.338Z,3.42
2022-11-26T08:21:15.167Z,3.50
2022-11-26T08:23:41.975Z,3.56
2022-11-26T08:26:34.567Z,3.62
2022-11-26T08:29:00.680Z,3.69
2022-11-26T08:31:28.319Z,3.73
2022-11-26T08:33:59.868Z,3.77
2022-11-26T08:36:28.371Z,3.84
2022-11-26T08:38:55.429Z,3.90
2022-11-26T08:41:23.426Z,3.96
2022-11-26T08:44:07.817Z,3.99
2022-11-26T08:46:37.497Z,4.08
2022-11-26T08:49:04.793Z,4.14
2022-11-26T08:51:31.705Z,4.20
2022-11-26T08:53:58.512Z,4.26
2022-11-26T08:56:26.294Z,4.32
2022-11-26T08:58:53.140Z,4.37
2022-11-26T09:01:22.966Z,4.42
2022-11-26T09:03:51.245Z,4.47
2022-11-26T09:06:19.106Z,4.51
2022-11-26T09:09:04.901Z,4.57
2022-11-26T09:11:33.432Z,4.64
2022-11-26T09:14:00.379Z,4.71
2022-11-26T09:16:27.562Z,4.78
2022-11-26T09:18:54.899Z,4.83
2022-11-26T09:21:22.673Z,4.91
2022-11-26T09:23:49.649Z,4.98
2022-11-26T09:26:16.605Z,5.04
2022-11-26T09:28:43.427Z,5.10
2022-11-26T09:31:10.298Z,5.19
2022-11-26T09:33:37.112Z,5.29
2022-11-26T09:36:09.422Z,5.35
2022-11-26T09:38:37.208Z,5.42
2022-11-26T09:41:41.450Z,5.47
2022-11-26T09:44:37.110Z,5.56
2022-11-26T09:47:18.551Z,5.63
2022-11-26T09:50:13.386Z,5.69
2022-11-26T09:52:58.052Z,5.74
2022-11-26T09:55:31.378Z,5.78
2022-11-26T09:58:05.195Z,5.85
2022-11-26T10:00:39.993Z,5.91
2022-11-26T10:03:24.259Z,5.97
2022-11-26T10:06:09.843Z,6.04
2022-11-26T10:08:54.794Z,6.12
2022-11-26T10:11:48.249Z,6.16
2022-11-26T10:14:33.814Z,6.23
2022-11-26T10:17:25.771Z,6.31
2022-11-26T10:20:02.904Z,6.40
2022-11-26T10:22:56.869Z,6.47
2022-11-26T10:25:28.506Z,6.55
2022-11-26T10:27:59.661Z,6.63
2022-11-26T10:30:29.521Z,6.65
2022-11-26T10:33:01.107Z,6.69
2022-11-26T10:35:29.593Z,6.74
2022-11-26T10:37:57.627Z,6.78
2022-11-26T10:40:30.728Z,6.77
2022-11-26T10:43:08.632Z,6.78
2022-11-26T10:45:41.722Z,6.79
2022-11-26T10:48:33.259Z,6.86
2022-11-26T10:51:30.486Z,6.90
2022-11-26T10:54:00.439Z,6.99
2022-11-26T10:56:48.008Z,7.08
2022-11-26T10:59:24.274Z,7.16
2022-11-26T11:01:56.045Z,7.27
2022-11-26T11:04:30.965Z,7.34
2022-11-26T11:06:58.864Z,7.42
2022-11-26T11:09:29.662Z,7.53
2022-11-26T11:12:11.785Z,7.63
2022-11-26T11:14:42.987Z,7.65
2022-11-26T11:17:29.786Z,7.69
2022-11-26T11:20:22.306Z,7.70
2022-11-26T11:23:17.183Z,7.71
2022-11-26T11:26:04.281Z,7.69
2022-11-26T11:28:33.833Z,7.67
2022-11-26T11:31:22.164Z,7.60
2022-11-26T11:33:50.162Z,7.58
2022-11-26T11:36:28.751Z,7.60
2022-11-26T11:39:03.941Z,7.67
2022-11-26T11:41:45.994Z,7.73
2022-11-26T11:44:20.841Z,7.76
2022-11-26T11:47:02.223Z,7.80
2022-11-26T11:49:35.034Z,7.82
2022-11-26T11:52:35.619Z,7.84
2022-11-26T11:55:24.624Z,7.87
2022-11-26T11:58:24.136Z,7.92
2022-11-26T12:01:04.936Z,7.95
2022-11-26T12:03:53.541Z,8.00
2022-11-26T12:06:32.345Z,8.05
2022-11-26T12:09:07.360Z,8.07
2022-11-26T12:11:52.429Z,8.07
2022-11-26T12:14:33.525Z,8.10
2022-11-26T12:17:12.303Z,8.16
2022-11-26T12:19:54.925Z,8.23
2022-11-26T12:22:44.783Z,8.32
2022-11-26T12:25:17.603Z,8.37
2022-11-26T12:27:52.781Z,8.38
2022-11-26T12:30:23.035Z,8.48
2022-11-26T12:32:57.369Z,8.57
2022-11-26T12:35:36.714Z,8.68
2022-11-26T12:38:25.380Z,8.77
2022-11-26T12:41:07.836Z,8.89
2022-11-26T12:44:13.493Z,8.96
2022-11-26T12:46:47.543Z,9.05
2022-11-26T12:49:33.089Z,9.13
2022-11-26T12:52:17.645Z,9.15
2022-11-26T12:54:54.519Z,9.17
2022-11-26T12:57:28.451Z,9.17
2022-11-26T13:00:08.348Z,9.15
2022-11-26T13:02:38.393Z,9.12
2022-11-26T13:05:06.147Z,9.13
2022-11-26T13:08:02.926Z,9.14
2022-11-26T13:10:48.074Z,9.13
2022-11-26T13:13:36.049Z,9.16
2022-11-26T13:16:15.026Z,9.17
2022-11-26T13:18:47.914Z,9.20
2022-11-26T13:21:27.944Z,9.23
2022-11-26T13:24:28.774Z,9.24
2022-11-26T13:27:33.260Z,9.27
2022-11-26T13:30:21.347Z,9.33
2022-11-26T13:33:40.851Z,9.39
2022-11-26T13:36:18.511Z,9.40
2022-11-26T13:39:18.872Z,9.39
2022-11-26T13:41:51.791Z,9.40
2022-11-26T13:44:18.599Z,9.45
2022-11-26T13:47:04.628Z,9.48
2022-11-26T13:49:39.526Z,9.46
2022-11-26T13:52:34.483Z,9.41
2022-11-26T13:55:33.330Z,9.37
2022-11-26T13:58:05.368Z,9.30
2022-11-26T14:00:34.402Z,9.28
2022-11-26T14:03:03.084Z,9.26
2022-11-26T14:06:01.357Z,9.24
2022-11-26T14:08:41.738Z,9.19
2022-11-26T14:11:09.429Z,9.21
2022-11-26T14:13:36.619Z,9.16
2022-11-26T14:16:10.365Z,9.13
2022-11-26T14:18:49.454Z,9.03
2022-11-26T14:21:17.997Z,8.96
2022-11-26T14:23:47.753Z,8.90
2022-11-26T14:26:19.963Z,8.82
2022-11-26T14:28:48.731Z,8.74
2022-11-26T14:31:15.678Z,8.67
2022-11-26T14:33:45.415Z,8.61
2022-11-26T14:36:27.111Z,8.53
2022-11-26T14:39:05.572Z,8.47
2022-11-26T14:41:51.876Z,8.42
2022-11-26T14:44:19.841Z,8.39
2022-11-26T14:46:50.992Z,8.37
2022-11-26T14:49:20.849Z,8.36
2022-11-26T14:51:53.686Z,8.36
2022-11-26T14:54:32.154Z,8.33
2022-11-26T14:57:06.217Z,8.33
2022-11-26T14:59:33.511Z,8.27
2022-11-26T15:02:00.444Z,8.25
2022-11-26T15:04:38.989Z,8.21
2022-11-26T15:07:07.369Z,8.19
2022-11-26T15:09:34.349Z,8.13
2022-11-26T15:12:16.525Z,8.09
2022-11-26T15:14:47.754Z,8.05
2022-11-26T15:17:17.813Z,8.00
2022-11-26T15:19:45.786Z,7.98
2022-11-26T15:22:35.533Z,7.94
2022-11-26T15:25:02.532Z,7.93
2022-11-26T15:27:38.465Z,7.89
2022-11-26T15:30:18.927Z,7.84
2022-11-26T15:32:45.960Z,7.81
2022-11-26T15:35:15.408Z,7.75
2022-11-26T15:37:42.655Z,7.71
2022-11-26T15:40:33.507Z,7.68
2022-11-26T15:43:05.352Z,7.63
2022-11-26T15:45:40.970Z,7.58
2022-11-26T15:48:28.140Z,7.55
2022-11-26T15:51:06.172Z,7.49
2022-11-26T15:53:37.430Z,7.45
2022-11-26T15:56:05.975Z,7.39
2022-11-26T15:58:38.927Z,7.35
2022-11-26T16:01:16.318Z,7.31
2022-11-26T16:03:47.494Z,7.28
2022-11-26T16:06:43.814Z,7.23
2022-11-26T16:09:14.773Z,7.20
2022-11-26T16:11:58.127Z,7.17
2022-11-26T16:14:35.746Z,7.13
2022-11-26T16:17:15.475Z,7.10
2022-11-26T16:19:55.027Z,7.06
2022-11-26T16:22:28.334Z,7.04
2022-11-26T16:25:04.684Z,7.01
2022-11-26T16:27:33.332Z,6.97
2022-11-26T16:30:06.844Z,6.97
2022-11-26T16:32:33.690Z,6.93
2022-11-26T16:35:12.179Z,6.90
2022-11-26T16:37:45.504Z,6.90
2022-11-26T16:40:19.208Z,6.89
2022-11-26T16:42:47.250Z,6.87
2022-11-26T16:45:14.854Z,6.86
2022-11-26T16:47:45.128Z,6.82
2022-11-26T16:50:26.876Z,6.80
2022-11-26T16:52:55.261Z,6.78
2022-11-26T16:55:27.377Z,6.74
2022-11-26T16:58:00.296Z,6.74
2022-11-26T17:00:27.876Z,6.71
2022-11-26T17:02:55.196Z,6.71
2022-11-26T17:05:22.927Z,6.69
2022-11-26T17:07:54.054Z,6.65
2022-11-26T17:10:23.602Z,6.64
2022-11-26T17:12:50.821Z,6.62
2022-11-26T17:15:18.401Z,6.60
2022-11-26T17:17:45.668Z,6.58
2022-11-26T17:20:22.668Z,6.57
2022-11-26T17:22:49.693Z,6.58
2022-11-26T17:25:16.651Z,6.56
2022-11-26T17:27:44.301Z,6.56
2022-11-26T17:30:23.835Z,6.54
2022-11-26T17:32:51.832Z,6.51
2022-11-26T17:35:19.151Z,6.53
2022-11-26T17:37:46.477Z,6.53
2022-11-26T17:40:19.747Z,6.53
2022-11-26T17:42:47.133Z,6.54
2022-11-26T17:45:14.779Z,6.52
2022-11-26T17:47:42.419Z,6.50
2022-11-26T17:50:22.713Z,6.48
2022-11-26T17:52:50.337Z,6.44
2022-11-26T17:55:18.379Z,6.43
2022-11-26T17:57:45.289Z,6.42
2022-11-26T18:00:16.375Z,6.40
2022-11-26T18:02:43.983Z,6.39
2022-11-26T18:05:11.587Z,6.36
2022-11-26T18:07:39.633Z,6.33
2022-11-26T18:10:11.399Z,6.33
2022-11-26T18:12:38.803Z,6.32
2022-11-26T18:15:06.701Z,6.31
2022-11-26T18:17:33.541Z,6.30
2022-11-26T18:20:00.395Z,6.30
2022-11-26T18:22:28.325Z,6.30
2022-11-26T18:24:57.348Z,6.29
2022-11-26T18:27:29.398Z,6.26
2022-11-26T18:29:56.262Z,6.27
2022-11-26T18:32:23.015Z,6.24
2022-11-26T18:34:50.858Z,6.24
2022-11-26T18:37:18.462Z,6.20
2022-11-26T18:39:45.482Z,6.20
2022-11-26T18:45:00.957Z,6.14
2022-11-26T18:47:27.793Z,6.13
2022-11-26T18:49:54.738Z,6.10
2022-11-26T18:52:21.658Z,6.08
2022-11-26T18:54:48.600Z,6.04
2022-11-26T18:57:15.378Z,6.02
2022-11-26T18:59:42.549Z,6.02
2022-11-26T19:02:10.999Z,5.99
2022-11-26T19:04:39.228Z,5.97
2022-11-26T19:07:06.396Z,5.96
2022-11-26T19:09:33.257Z,5.93
2022-11-26T19:12:00.111Z,5.93
2022-11-26T19:14:27.110Z,5.91
2022-11-26T19:16:54.020Z,5.88
2022-11-26T19:19:20.865Z,5.90
2022-11-26T19:21:47.743Z,5.88
2022-11-26T19:24:15.145Z,5.86
2022-11-26T19:26:42.339Z,5.84
2022-11-26T19:29:12.204Z,5.78
2022-11-26T19:31:40.067Z,5.79
2022-11-26T19:34:14.494Z,5.80
2022-11-26T19:36:41.889Z,5.79
2022-11-26T19:39:09.126Z,5.76
2022-11-26T19:41:36.022Z,5.77
2022-11-26T19:44:05.572Z,5.79
2022-11-26T19:46:32.995Z,5.80
2022-11-26T19:48:59.894Z,5.79
2022-11-26T19:51:27.877Z,5.82
2022-11-26T19:53:56.440Z,5.84
2022-11-26T19:56:29.024Z,5.85
2022-11-26T19:59:02.350Z,5.87
2022-11-26T20:01:31.644Z,5.87
2022-11-26T20:04:00.472Z,5.88
2022-11-26T20:06:28.826Z,5.89
2022-11-26T20:08:58.218Z,5.90
2022-11-26T20:11:25.601Z,5.90
2022-11-26T20:13:52.546Z,5.91
2022-11-26T20:16:30.623Z,5.92
2022-11-26T20:18:58.867Z,5.92
2022-11-26T20:21:28.199Z,5.92
2022-11-26T20:23:58.038Z,5.91
2022-11-26T20:26:31.421Z,5.91
2022-11-26T20:29:07.493Z,5.93
2022-11-26T20:31:35.225Z,5.92
2022-11-26T20:34:03.302Z,5.93
2022-11-26T20:36:30.827Z,5.91
2022-11-26T20:39:01.514Z,5.92
2022-11-26T20:41:29.411Z,5.90
2022-11-26T20:43:58.990Z,5.91
2022-11-26T20:46:28.761Z,5.90
2022-11-26T20:48:56.738Z,5.88
2022-11-26T20:51:24.213Z,5.87
2022-11-26T20:53:52.428Z,5.86
2022-11-26T20:56:21.560Z,5.86
2022-11-26T20:58:48.782Z,5.84
2022-11-26T21:01:18.050Z,5.84
2022-11-26T21:03:45.300Z,5.82
2022-11-26T21:06:17.758Z,5.80
2022-11-26T21:08:45.007Z,5.76
2022-11-26T21:11:13.009Z,5.74
2022-11-26T21:13:40.700Z,5.72
2022-11-26T21:16:11.822Z,5.68
2022-11-26T21:18:38.862Z,5.67
2022-11-26T21:21:16.740Z,5.64
2022-11-26T21:23:44.776Z,5.59
2022-11-26T21:26:16.862Z,5.56
2022-11-26T21:28:43.938Z,5.51
2022-11-26T21:31:14.911Z,5.45
2022-11-26T21:33:41.840Z,5.42
2022-11-26T21:36:15.425Z,5.40
2022-11-26T21:38:43.222Z,5.37
2022-11-26T21:41:12.683Z,5.35
2022-11-26T21:43:40.476Z,5.29
2022-11-26T21:46:09.724Z,5.28
2022-11-26T21:48:36.600Z,5.26
2022-11-26T21:51:12.584Z,5.23
2022-11-26T21:53:39.731Z,5.19
2022-11-26T21:56:09.727Z,5.15
2022-11-26T21:58:37.360Z,5.13
2022-11-26T22:01:13.353Z,5.10
2022-11-26T22:03:42.180Z,5.10
2022-11-26T22:06:09.459Z,5.06
2022-11-26T22:08:36.650Z,5.04
2022-11-26T22:11:15.491Z,5.02
2022-11-26T22:13:42.523Z,4.98
2022-11-26T22:16:10.625Z,4.95
2022-11-26T22:18:41.974Z,4.98
2022-11-26T22:21:18.492Z,4.96
2022-11-26T22:23:45.827Z,4.95
2022-11-26T22:26:12.820Z,4.94
2022-11-26T22:28:39.831Z,4.91
2022-11-26T22:31:17.811Z,4.92
2022-11-26T22:33:44.847Z,4.91
2022-11-26T22:36:11.777Z,4.90
2022-11-26T22:38:40.032Z,4.88
2022-11-26T22:41:10.314Z,4.88
2022-11-26T22:43:37.745Z,4.90
2022-11-26T22:46:06.081Z,4.87
2022-11-26T22:48:34.483Z,4.89
2022-11-26T22:51:02.072Z,4.89
2022-11-26T22:53:29.066Z,4.89
2022-11-26T22:55:58.256Z,4.89
2022-11-26T22:58:26.794Z,4.89
2022-11-26T23:01:00.235Z,4.89
2022-11-26T23:03:29.334Z,4.91
2022-11-26T23:05:56.399Z,4.90
2022-11-26T23:08:23.197Z,4.88
2022-11-26T23:10:50.063Z,4.87
2022-11-26T23:13:17.712Z,4.84
2022-11-26T23:15:46.125Z,4.83
2022-11-26T23:18:14.947Z,4.80
2022-11-26T23:20:43.169Z,4.80
2022-11-26T23:23:10.358Z,4.80
2022-11-26T23:25:41.628Z,4.76
2022-11-26T23:28:09.340Z,4.76
2022-11-26T23:30:36.427Z,4.74
2022-11-26T23:33:03.349Z,4.72
2022-11-26T23:35:30.217Z,4.71
2022-11-26T23:37:57.096Z,4.70
2022-11-26T23:40:24.100Z,4.69
2022-11-26T23:42:50.918Z,4.70
2022-11-26T23:45:17.939Z,4.69
2022-11-26T23:47:44.824Z,4.67
2022-11-26T23:50:12.345Z,4.69
2022-11-26T23:52:40.823Z,4.66
2022-11-26T23:55:08.050Z,4.65
2022-11-26T23:57:34.982Z,4.66
